createdAt,value
2022-10-22T00:01:02.185Z,13.10
2022-10-22T00:03:30.144Z,13.10
2022-10-22T00:05:58.105Z,13.10
2022-10-22T00:08:26.230Z,13.10
2022-10-22T00:10:54.341Z,13.10
2022-10-22T00:13:23.726Z,13.10
2022-10-22T00:15:51.723Z,13.10
2022-10-22T00:18:19.716Z,13.10
2022-10-22T00:20:47.853Z,13.10
2022-10-22T00:23:15.830Z,13.10
2022-10-22T00:25:43.758Z,13.10
2022-10-22T00:28:12.572Z,13.10
2022-10-22T00:30:42.060Z,13.10
2022-10-22T00:33:10.217Z,13.10
2022-10-22T00:35:38.284Z,13.10
2022-10-22T00:38:06.235Z,13.10
2022-10-22T00:40:34.241Z,13.00
2022-10-22T00:43:02.181Z,13.00
2022-10-22T00:45:30.880Z,13.00
2022-10-22T00:48:04.559Z,13.00
2022-10-22T00:50:36.664Z,13.00
2022-10-22T00:53:09.695Z,12.90
2022-10-22T00:55:38.532Z,12.90
2022-10-22T00:58:06.561Z,12.90
2022-10-22T01:00:34.710Z,12.90
2022-10-22T01:03:04.206Z,12.80
2022-10-22T01:05:42.108Z,12.80
2022-10-22T01:08:19.377Z,12.80
2022-10-22T01:10:56.261Z,12.80
2022-10-22T01:13:34.601Z,12.80
2022-10-22T01:16:10.092Z,12.70
2022-10-22T01:18:48.430Z,12.70
2022-10-22T01:21:26.186Z,12.60
2022-10-22T01:24:16.563Z,12.60
2022-10-22T01:27:05.971Z,12.60
2022-10-22T01:29:40.732Z,12.60
2022-10-22T01:32:12.594Z,12.60
2022-10-22T01:34:44.553Z,12.50
2022-10-22T01:37:15.636Z,12.50
2022-10-22T01:39:47.226Z,12.50
2022-10-22T01:42:15.524Z,12.50
2022-10-22T01:44:44.934Z,12.50
2022-10-22T01:47:18.360Z,12.50
2022-10-22T01:50:06.161Z,12.50
2022-10-22T01:52:51.510Z,12.40
2022-10-22T01:55:28.625Z,12.50
2022-10-22T01:58:10.014Z,12.40
2022-10-22T02:00:44.226Z,12.40
2022-10-22T02:03:21.297Z,12.40
2022-10-22T02:05:54.700Z,12.40
2022-10-22T02:08:26.112Z,12.40
2022-10-22T02:10:55.574Z,12.40
2022-10-22T02:13:26.941Z,12.40
2022-10-22T02:15:58.341Z,12.30
2022-10-22T02:18:30.734Z,12.30
2022-10-22T02:21:02.012Z,12.30
2022-10-22T02:23:30.487Z,12.30
2022-10-22T02:26:04.615Z,12.20
2022-10-22T02:28:38.454Z,12.20
2022-10-22T02:31:14.917Z,12.20
2022-10-22T02:33:46.662Z,12.20
2022-10-22T02:36:16.537Z,12.20
2022-10-22T02:38:45.225Z,12.20
2022-10-22T02:41:13.183Z,12.20
2022-10-22T02:43:42.899Z,12.20
2022-10-22T02:46:12.737Z,12.20
2022-10-22T02:48:40.672Z,12.10
2022-10-22T02:51:08.635Z,12.10
2022-10-22T02:53:36.803Z,12.10
2022-10-22T02:56:04.981Z,12.10
2022-10-22T02:58:33.012Z,12.10
2022-10-22T03:01:01.112Z,12.10
2022-10-22T03:03:30.545Z,12.10
2022-10-22T03:05:58.518Z,12.10
2022-10-22T03:08:26.542Z,12.10
2022-10-22T03:10:54.510Z,12.00
2022-10-22T03:13:22.557Z,12.00
2022-10-22T03:15:51.207Z,12.00
2022-10-22T03:18:19.441Z,12.10
2022-10-22T03:20:48.743Z,12.00
2022-10-22T03:23:20.633Z,12.00
2022-10-22T03:25:50.761Z,12.00
2022-10-22T03:28:19.794Z,12.00
2022-10-22T03:30:47.769Z,11.90
2022-10-22T03:33:15.774Z,11.90
2022-10-22T03:35:47.330Z,11.90
2022-10-22T03:38:16.886Z,11.90
2022-10-22T03:40:46.765Z,11.90
2022-10-22T03:43:14.905Z,11.90
2022-10-22T03:45:42.834Z,11.90
2022-10-22T03:48:10.826Z,11.90
2022-10-22T03:50:38.813Z,11.90
2022-10-22T03:53:07.169Z,11.90
2022-10-22T03:55:38.112Z,11.90
2022-10-22T03:58:06.488Z,11.90
2022-10-22T04:00:36.343Z,12.00
2022-10-22T04:03:04.551Z,11.90
2022-10-22T04:05:34.422Z,11.90
2022-10-22T04:08:02.376Z,11.90
2022-10-22T04:10:30.447Z,11.90
2022-10-22T04:12:59.944Z,11.90
2022-10-22T04:15:29.063Z,11.90
2022-10-22T04:17:57.449Z,11.90
2022-10-22T04:20:25.446Z,11.90
2022-10-22T04:22:53.393Z,11.80
2022-10-22T04:25:21.327Z,11.80
2022-10-22T04:27:49.259Z,11.80
2022-10-22T04:30:18.763Z,11.80
2022-10-22T04:32:46.742Z,11.80
2022-10-22T04:35:14.825Z,11.80
2022-10-22T04:37:43.106Z,11.70
2022-10-22T04:40:12.817Z,11.80
2022-10-22T04:42:40.781Z,11.80
2022-10-22T04:45:09.921Z,11.70
2022-10-22T04:47:39.694Z,11.70
2022-10-22T04:50:09.306Z,11.70
2022-10-22T04:52:37.278Z,11.70
2022-10-22T04:55:05.710Z,11.70
2022-10-22T04:57:33.916Z,11.70
2022-10-22T05:00:01.878Z,11.70
2022-10-22T05:02:29.819Z,11.60
2022-10-22T05:04:59.229Z,11.70
2022-10-22T05:07:27.322Z,11.70
2022-10-22T05:09:55.546Z,11.70
2022-10-22T05:12:23.514Z,11.70
2022-10-22T05:14:51.456Z,11.70
2022-10-22T05:17:19.402Z,11.70
2022-10-22T05:19:47.342Z,11.70
2022-10-22T05:22:16.691Z,11.70
2022-10-22T05:24:44.634Z,11.70
2022-10-22T05:27:12.648Z,11.80
2022-10-22T05:29:40.639Z,11.70
2022-10-22T05:32:08.840Z,11.80
2022-10-22T05:34:37.174Z,11.70
2022-10-22T05:37:05.181Z,11.70
2022-10-22T05:39:36.748Z,11.70
2022-10-22T05:42:04.999Z,11.70
2022-10-22T05:44:33.140Z,11.70
2022-10-22T05:47:01.130Z,11.80
2022-10-22T05:49:29.161Z,11.70
2022-10-22T05:51:57.499Z,11.80
2022-10-22T05:54:25.495Z,11.70
2022-10-22T05:56:55.570Z,11.80
2022-10-22T05:59:23.549Z,11.80
2022-10-22T06:01:51.773Z,11.70
2022-10-22T06:04:19.788Z,11.70
2022-10-22T06:06:50.024Z,11.80
2022-10-22T06:09:21.260Z,11.80
2022-10-22T06:11:50.751Z,11.80
2022-10-22T06:14:21.324Z,11.80
2022-10-22T06:16:50.073Z,11.80
2022-10-22T06:19:20.491Z,11.80
2022-10-22T06:21:49.095Z,11.70
2022-10-22T06:24:17.415Z,11.80
2022-10-22T06:26:45.526Z,11.80
2022-10-22T06:29:13.527Z,11.80
2022-10-22T06:31:42.909Z,11.90
2022-10-22T06:34:13.689Z,11.80
2022-10-22T06:36:42.655Z,11.80
2022-10-22T06:39:12.481Z,11.80
2022-10-22T06:41:40.645Z,11.90
2022-10-22T06:44:09.043Z,11.90
2022-10-22T06:46:39.044Z,11.90
2022-10-22T06:49:14.055Z,11.90
2022-10-22T06:51:42.118Z,11.90
2022-10-22T06:54:10.347Z,12.00
2022-10-22T06:56:38.325Z,11.90
2022-10-22T06:59:06.295Z,11.90
2022-10-22T07:01:35.614Z,12.00
2022-10-22T07:04:04.437Z,12.00
2022-10-22T07:06:34.060Z,12.00
2022-10-22T07:09:02.169Z,12.00
2022-10-22T07:11:32.037Z,12.00
2022-10-22T07:14:01.111Z,12.00
2022-10-22T07:16:31.276Z,12.00
2022-10-22T07:19:00.879Z,12.00
2022-10-22T07:21:29.779Z,12.00
2022-10-22T07:24:00.046Z,12.00
2022-10-22T07:26:30.866Z,12.10
2022-10-22T07:28:59.506Z,12.10
2022-10-22T07:31:27.505Z,12.10
2022-10-22T07:33:55.499Z,12.10
2022-10-22T07:36:23.461Z,12.10
2022-10-22T07:38:59.727Z,12.10
2022-10-22T07:41:29.433Z,12.20
2022-10-22T07:43:58.071Z,12.10
2022-10-22T07:46:27.118Z,12.20
2022-10-22T07:48:55.235Z,12.20
2022-10-22T07:51:23.366Z,12.20
2022-10-22T07:53:51.337Z,12.20
2022-10-22T07:56:20.689Z,12.20
2022-10-22T07:58:48.731Z,12.30
2022-10-22T08:01:16.780Z,12.30
2022-10-22T08:03:45.385Z,12.40
2022-10-22T08:06:14.578Z,12.30
2022-10-22T08:08:43.414Z,12.40
2022-10-22T08:11:11.663Z,12.40
2022-10-22T08:13:45.054Z,12.50
2022-10-22T08:16:14.000Z,12.60
2022-10-22T08:18:42.023Z,12.70
2022-10-22T08:21:10.071Z,12.70
2022-10-22T08:23:38.682Z,12.80
2022-10-22T08:26:07.107Z,12.90
2022-10-22T08:28:37.178Z,12.90
2022-10-22T08:31:08.273Z,13.00
2022-10-22T08:33:36.330Z,13.10
2022-10-22T08:36:04.751Z,13.20
2022-10-22T08:38:32.897Z,13.20
2022-10-22T08:41:09.903Z,13.20
2022-10-22T08:44:03.035Z,13.30
2022-10-22T08:46:46.212Z,13.30
2022-10-22T08:49:20.540Z,13.30
2022-10-22T08:51:48.918Z,13.30
2022-10-22T08:54:34.428Z,13.40
2022-10-22T08:57:20.179Z,13.40
2022-10-22T08:59:54.159Z,13.50
2022-10-22T09:02:38.527Z,13.50
2022-10-22T09:05:20.920Z,13.60
2022-10-22T09:07:50.437Z,13.60
2022-10-22T09:10:20.374Z,13.70
2022-10-22T09:12:49.205Z,13.80
2022-10-22T09:15:19.484Z,13.80
2022-10-22T09:18:00.433Z,13.80
2022-10-22T09:20:32.822Z,13.90
2022-10-22T09:23:20.482Z,13.90
2022-10-22T09:25:51.199Z,13.90
2022-10-22T09:28:19.363Z,14.00
2022-10-22T09:30:47.429Z,14.00
2022-10-22T09:33:25.412Z,14.00
2022-10-22T09:35:56.042Z,14.10
2022-10-22T09:38:28.151Z,14.10
2022-10-22T09:40:57.903Z,14.10
2022-10-22T09:43:26.259Z,14.10
2022-10-22T09:45:58.565Z,14.10
2022-10-22T09:48:34.455Z,14.10
2022-10-22T09:51:10.706Z,14.10
2022-10-22T09:53:40.525Z,14.10
2022-10-22T09:56:11.093Z,14.20
2022-10-22T09:58:49.314Z,14.20
2022-10-22T10:01:20.270Z,14.20
2022-10-22T10:03:51.354Z,14.20
2022-10-22T10:06:21.073Z,14.20
2022-10-22T10:08:50.427Z,14.20
2022-10-22T10:11:29.222Z,14.20
2022-10-22T10:14:09.246Z,14.20
2022-10-22T10:16:44.413Z,14.30
2022-10-22T10:19:30.682Z,14.30
2022-10-22T10:22:07.599Z,14.30
2022-10-22T10:24:51.600Z,14.40
2022-10-22T10:27:26.100Z,14.50
2022-10-22T10:30:00.275Z,14.50
2022-10-22T10:32:46.103Z,14.60
2022-10-22T10:35:24.875Z,14.70
2022-10-22T10:38:07.179Z,14.70
2022-10-22T10:40:42.054Z,14.80
2022-10-22T10:43:14.557Z,14.80
2022-10-22T10:45:55.751Z,14.90
2022-10-22T10:48:44.095Z,15.00
2022-10-22T10:51:27.245Z,15.00
2022-10-22T10:54:05.756Z,15.00
2022-10-22T10:56:40.309Z,15.10
2022-10-22T10:59:20.089Z,15.10
2022-10-22T11:02:03.951Z,15.10
2022-10-22T11:05:04.690Z,15.10
2022-10-22T11:07:39.990Z,15.20
2022-10-22T11:10:27.907Z,15.30
2022-10-22T11:13:02.745Z,15.40
2022-10-22T11:15:35.195Z,15.40
2022-10-22T11:18:12.086Z,15.50
2022-10-22T11:20:50.459Z,15.50
2022-10-22T11:23:27.672Z,15.50
2022-10-22T11:25:55.656Z,15.50
2022-10-22T11:28:29.587Z,15.50
2022-10-22T11:31:02.531Z,15.50
2022-10-22T11:33:38.971Z,15.60
2022-10-22T11:36:09.331Z,15.70
2022-10-22T11:38:38.891Z,15.80
2022-10-22T11:41:10.794Z,15.90
2022-10-22T11:45:37.597Z,15.90
2022-10-22T11:46:57.419Z,15.90
2022-10-22T11:49:27.990Z,15.80
2022-10-22T11:52:25.668Z,15.90
2022-10-22T11:54:58.105Z,16.00
2022-10-22T11:57:37.372Z,16.10
2022-10-22T12:00:31.167Z,16.30
2022-10-22T12:03:04.302Z,16.40
2022-10-22T12:05:37.049Z,16.60
2022-10-22T12:08:27.228Z,16.60
2022-10-22T12:11:05.907Z,16.70
2022-10-22T12:13:51.883Z,16.70
2022-10-22T12:16:32.101Z,16.70
2022-10-22T12:19:16.038Z,16.80
2022-10-22T12:21:48.487Z,16.90
2022-10-22T12:24:18.710Z,17.00
2022-10-22T12:26:49.852Z,17.20
2022-10-22T12:29:18.437Z,17.30
2022-10-22T12:31:48.440Z,17.40
2022-10-22T12:34:18.394Z,17.30
2022-10-22T12:36:49.359Z,17.30
2022-10-22T12:39:19.419Z,17.20
2022-10-22T12:41:48.878Z,17.20
2022-10-22T12:44:18.991Z,17.10
2022-10-22T12:46:53.011Z,17.10
2022-10-22T12:49:32.055Z,17.10
2022-10-22T12:52:04.250Z,17.00
2022-10-22T12:54:34.158Z,17.00
2022-10-22T12:57:03.784Z,17.00
2022-10-22T12:59:35.031Z,17.00
2022-10-22T13:02:06.774Z,17.00
2022-10-22T13:04:38.613Z,17.00
2022-10-22T13:07:22.366Z,17.00
2022-10-22T13:09:59.992Z,17.10
2022-10-22T13:12:38.053Z,17.10
2022-10-22T13:15:22.177Z,17.20
2022-10-22T13:20:24.708Z,17.20
2022-10-22T13:23:00.264Z,17.20
2022-10-22T13:25:30.373Z,17.10
2022-10-22T13:28:02.014Z,17.20
2022-10-22T13:30:33.089Z,17.20
2022-10-22T13:33:03.331Z,17.10
2022-10-22T13:35:34.287Z,17.10
2022-10-22T13:38:02.934Z,17.10
2022-10-22T13:40:30.902Z,17.00
2022-10-22T13:43:00.191Z,17.10
2022-10-22T13:45:28.232Z,17.20
2022-10-22T13:47:57.059Z,17.30
2022-10-22T13:50:25.273Z,17.30
2022-10-22T13:52:55.209Z,17.40
2022-10-22T13:55:26.013Z,17.40
2022-10-22T13:57:56.454Z,17.40
2022-10-22T14:00:26.395Z,17.40
2022-10-22T14:02:58.010Z,17.40
2022-10-22T14:05:26.395Z,17.40
2022-10-22T14:07:54.618Z,17.40
2022-10-22T14:10:24.308Z,17.30
2022-10-22T14:12:53.721Z,17.30
2022-10-22T14:15:23.829Z,17.30
2022-10-22T14:17:57.193Z,17.20
2022-10-22T14:20:26.736Z,17.20
2022-10-22T14:22:55.074Z,17.20
2022-10-22T14:25:25.631Z,17.10
2022-10-22T14:27:53.910Z,17.00
2022-10-22T14:30:25.778Z,17.00
2022-10-22T14:32:55.116Z,16.90
2022-10-22T14:35:24.190Z,16.90
2022-10-22T14:37:52.431Z,16.80
2022-10-22T14:40:21.803Z,16.70
2022-10-22T14:42:50.213Z,16.70
2022-10-22T14:45:20.971Z,16.60
2022-10-22T14:47:49.189Z,16.60
2022-10-22T14:50:19.610Z,16.50
2022-10-22T14:52:47.873Z,16.50
2022-10-22T14:55:17.797Z,16.50
2022-10-22T14:57:46.373Z,16.50
2022-10-22T15:00:17.193Z,16.50
2022-10-22T15:02:45.493Z,16.50
2022-10-22T15:05:13.815Z,16.50
2022-10-22T15:07:43.539Z,16.60
2022-10-22T15:10:12.015Z,16.50
2022-10-22T15:12:39.991Z,16.50
2022-10-22T15:15:08.804Z,16.50
2022-10-22T15:17:36.787Z,16.40
2022-10-22T15:20:05.510Z,16.40
2022-10-22T15:22:35.558Z,16.30
2022-10-22T15:25:07.534Z,16.30
2022-10-22T15:27:35.853Z,16.20
2022-10-22T15:30:03.846Z,16.10
2022-10-22T15:32:33.564Z,16.10
2022-10-22T15:35:01.857Z,16.00
2022-10-22T15:37:30.834Z,16.00
2022-10-22T15:40:00.460Z,15.90
2022-10-22T15:42:29.819Z,15.90
2022-10-22T15:44:59.793Z,15.80
2022-10-22T15:47:29.589Z,15.80
2022-10-22T15:49:58.765Z,15.70
2022-10-22T15:52:26.712Z,15.60
2022-10-22T15:54:54.774Z,15.60
2022-10-22T15:57:22.706Z,15.50
2022-10-22T15:59:52.161Z,15.50
2022-10-22T16:02:20.209Z,15.50
2022-10-22T16:04:48.152Z,15.40
2022-10-22T16:07:17.277Z,15.40
2022-10-22T16:09:46.713Z,15.40
2022-10-22T16:12:17.228Z,15.30
2022-10-22T16:14:45.370Z,15.20
2022-10-22T16:17:14.679Z,15.20
2022-10-22T16:19:42.638Z,15.20
2022-10-22T16:22:13.685Z,15.10
2022-10-22T16:24:41.642Z,15.10
2022-10-22T16:27:10.623Z,15.00
2022-10-22T16:29:39.552Z,15.00
2022-10-22T16:32:08.123Z,15.00
2022-10-22T16:34:37.460Z,14.90
2022-10-22T16:37:10.031Z,14.80
2022-10-22T16:39:38.329Z,14.80
2022-10-22T16:42:06.439Z,14.80
2022-10-22T16:44:34.741Z,14.70
2022-10-22T16:47:02.708Z,14.70
2022-10-22T16:49:30.679Z,14.70
2022-10-22T16:51:59.979Z,14.60
2022-10-22T16:54:28.001Z,14.60
2022-10-22T16:56:55.952Z,14.60
2022-10-22T16:59:23.979Z,14.60
2022-10-22T17:01:51.977Z,14.50
2022-10-22T17:04:19.951Z,14.50
2022-10-22T17:06:47.919Z,14.40
2022-10-22T17:09:17.299Z,14.40
2022-10-22T17:11:45.275Z,14.40
2022-10-22T17:14:14.481Z,14.40
2022-10-22T17:16:42.487Z,14.30
2022-10-22T17:19:14.006Z,14.30
2022-10-22T17:21:41.938Z,14.30
2022-10-22T17:24:11.412Z,14.30
2022-10-22T17:26:40.776Z,14.20
2022-10-22T17:29:08.751Z,14.20
2022-10-22T17:31:37.950Z,14.20
2022-10-22T17:34:07.448Z,14.20
2022-10-22T17:36:36.368Z,14.20
2022-10-22T17:39:06.738Z,14.10
2022-10-22T17:41:36.280Z,14.10
2022-10-22T17:44:08.987Z,14.10
2022-10-22T17:46:37.216Z,14.20
2022-10-22T17:49:07.933Z,14.10
2022-10-22T17:51:35.913Z,14.10
2022-10-22T17:54:07.313Z,14.10
2022-10-22T17:56:39.975Z,14.00
2022-10-22T17:59:09.774Z,14.00
2022-10-22T18:01:43.292Z,14.00
2022-10-22T18:04:14.197Z,14.00
2022-10-22T18:06:42.337Z,14.00
2022-10-22T18:09:13.212Z,13.90
2022-10-22T18:11:42.616Z,13.90
2022-10-22T18:14:11.922Z,13.90
2022-10-22T18:16:39.873Z,13.90
2022-10-22T18:19:07.850Z,13.90
2022-10-22T18:21:36.961Z,13.90
2022-10-22T18:24:05.193Z,13.80
2022-10-22T18:26:33.110Z,13.80
2022-10-22T18:29:01.100Z,13.80
2022-10-22T18:31:30.625Z,13.80
2022-10-22T18:33:58.950Z,13.70
2022-10-22T18:36:28.862Z,13.70
2022-10-22T18:38:58.488Z,13.70
2022-10-22T18:41:27.534Z,13.70
2022-10-22T18:43:56.928Z,13.70
2022-10-22T18:46:25.420Z,13.60
2022-10-22T18:48:55.768Z,13.60
2022-10-22T18:51:25.046Z,13.60
2022-10-22T18:54:05.070Z,13.60
2022-10-22T18:56:33.821Z,13.60
2022-10-22T18:59:01.750Z,13.60
2022-10-22T19:01:30.488Z,13.60
2022-10-22T19:03:59.891Z,13.60
2022-10-22T19:06:35.842Z,13.60
2022-10-22T19:09:05.511Z,13.60
2022-10-22T19:11:33.659Z,13.60
2022-10-22T19:14:01.710Z,13.50
2022-10-22T19:16:29.949Z,13.50
2022-10-22T19:19:04.748Z,13.50
2022-10-22T19:26:01.564Z,13.40
2022-10-22T19:32:47.055Z,13.30
2022-10-22T19:35:16.943Z,13.30
2022-10-22T19:37:48.302Z,13.30
2022-10-22T19:40:16.846Z,13.20
2022-10-22T19:42:47.011Z,13.20
2022-10-22T19:45:16.471Z,13.20
2022-10-22T19:47:46.828Z,13.20
2022-10-22T19:50:18.582Z,13.20
2022-10-22T19:52:46.646Z,13.20
2022-10-22T19:55:14.644Z,13.10
2022-10-22T19:57:43.075Z,13.10
2022-10-22T20:00:12.284Z,13.10
2022-10-22T20:02:40.318Z,13.10
2022-10-22T20:05:09.861Z,13.10
2022-10-22T20:07:40.922Z,13.00
2022-10-22T20:10:09.755Z,13.00
2022-10-22T20:12:39.666Z,13.00
2022-10-22T20:15:10.155Z,13.00
2022-10-22T20:17:43.797Z,13.00
2022-10-22T20:20:12.111Z,13.00
2022-10-22T20:22:43.194Z,12.90
2022-10-22T20:25:12.934Z,12.90
2022-10-22T20:27:40.924Z,12.90
2022-10-22T20:30:10.688Z,12.80
2022-10-22T20:32:39.960Z,12.80
2022-10-22T20:35:09.112Z,12.80
2022-10-22T20:37:37.225Z,12.80
2022-10-22T20:40:08.342Z,12.80
2022-10-22T20:42:36.893Z,12.80
2022-10-22T20:49:38.423Z,12.80
2022-10-22T20:56:00.074Z,12.80
2022-10-22T20:58:30.645Z,12.90
2022-10-22T21:01:00.951Z,13.00
2022-10-22T21:03:29.558Z,12.90
2022-10-22T21:06:00.750Z,12.90
2022-10-22T21:08:28.831Z,12.90
2022-10-22T21:10:58.811Z,12.90
2022-10-22T21:13:27.289Z,12.90
2022-10-22T21:15:55.342Z,12.90
2022-10-22T21:18:27.330Z,12.90
2022-10-22T21:20:56.150Z,12.90
2022-10-22T21:23:24.287Z,12.90
2022-10-22T21:25:57.522Z,12.90
2022-10-22T21:28:25.780Z,13.00
2022-10-22T21:30:53.900Z,13.00
2022-10-22T21:33:22.790Z,13.00
2022-10-22T21:35:52.825Z,13.00
2022-10-22T21:38:22.482Z,13.10
2022-10-22T21:40:51.817Z,13.10
2022-10-22T21:43:22.301Z,13.10
2022-10-22T21:45:50.345Z,13.10
2022-10-22T21:48:18.968Z,13.10
2022-10-22T21:50:48.050Z,13.10
2022-10-22T21:53:16.294Z,13.10
2022-10-22T21:55:44.760Z,13.10
2022-10-22T21:58:13.137Z,13.20
2022-10-22T22:00:42.973Z,13.20
2022-10-22T22:03:11.318Z,13.30
2022-10-22T22:05:39.623Z,13.30
2022-10-22T22:08:08.215Z,13.30
2022-10-22T22:10:36.323Z,13.40
2022-10-22T22:13:04.516Z,13.40
2022-10-22T22:15:35.051Z,13.40
2022-10-22T22:18:04.648Z,13.40
2022-10-22T22:20:32.723Z,13.40
2022-10-22T22:23:00.806Z,13.40
2022-10-22T22:25:28.841Z,13.40
2022-10-22T22:27:56.834Z,13.40
2022-10-22T22:30:25.045Z,13.40
2022-10-22T22:32:53.113Z,13.40
2022-10-22T22:35:22.491Z,13.30
2022-10-22T22:37:50.500Z,13.30
2022-10-22T22:40:18.637Z,13.30
2022-10-22T22:42:46.631Z,13.30
2022-10-22T22:45:14.639Z,13.30
2022-10-22T22:47:42.871Z,13.30
2022-10-22T22:50:11.225Z,13.30
2022-10-22T22:52:40.887Z,13.20
2022-10-22T22:55:10.196Z,13.20
2022-10-22T22:57:38.255Z,13.20
2022-10-22T23:00:07.398Z,13.10
2022-10-22T23:02:35.450Z,13.10
2022-10-22T23:05:03.486Z,13.10
2022-10-22T23:07:31.560Z,13.10
2022-10-22T23:10:01.156Z,13.00
2022-10-22T23:12:29.787Z,13.00
2022-10-22T23:15:02.006Z,13.00
2022-10-22T23:17:30.121Z,13.00
2022-10-22T23:19:58.206Z,12.90
2022-10-22T23:22:26.254Z,12.90
2022-10-22T23:24:54.254Z,12.90
2022-10-22T23:27:23.647Z,12.90
2022-10-22T23:29:51.687Z,12.90
2022-10-22T23:32:19.698Z,12.90
2022-10-22T23:34:47.725Z,12.80
2022-10-22T23:37:15.740Z,12.80
2022-10-22T23:39:44.099Z,12.80
2022-10-22T23:42:12.495Z,12.80
2022-10-22T23:44:42.070Z,12.70
2022-10-22T23:47:10.118Z,12.70
2022-10-22T23:49:38.166Z,12.70
2022-10-22T23:52:06.257Z,12.70
2022-10-22T23:54:34.359Z,12.70
2022-10-22T23:57:02.387Z,12.60
2022-10-22T23:59:30.449Z,12.60
